Terminal Aerodrome Forecast
Issued by NWS Northern Indiana

Home | Current Version | Previous Version | Graphics & Text | Print | Product List | Glossary On
Versions: 1 2 3 4 5 6 7 8 9 10 11 12 13
000
FTUS43 KIWX 261100
TAFFWA
TAF
KFWA 261132Z 2612/2712 03009KT 3SM -SN SCT020 OVC035
      TEMPO 2612/2616 2SM -SN OVC020
     FM261700 01010KT P6SM OVC025
     FM270300 34005KT P6SM BKN035=

USA.gov is the U.S. government's official web portal to all federal, state and local government web resources and services.